createdAt,value
2022-11-26T00:00:36.056Z,26.00
2022-11-26T00:01:36.046Z,26.00
2022-11-26T00:02:36.239Z,26.00
2022-11-26T00:03:36.082Z,32.20
2022-11-26T00:04:36.359Z,27.70
2022-11-26T00:05:36.053Z,30.80
2022-11-26T00:06:35.964Z,30.70
2022-11-26T00:07:36.027Z,30.80
2022-11-26T00:08:35.957Z,32.30
2022-11-26T00:09:35.943Z,29.10
2022-11-26T00:10:35.935Z,32.60
2022-11-26T00:11:35.921Z,28.40
2022-11-26T00:12:35.942Z,33.00
2022-11-26T00:13:35.912Z,30.80
2022-11-26T00:14:36.327Z,27.40
2022-11-26T00:15:35.878Z,33.70
2022-11-26T00:16:36.027Z,29.60
2022-11-26T00:17:35.871Z,32.00
2022-11-26T00:18:35.880Z,30.50
2022-11-26T00:19:35.832Z,30.20
2022-11-26T00:20:35.840Z,28.10
2022-11-26T00:21:35.815Z,30.40
2022-11-26T00:22:35.851Z,30.80
2022-11-26T00:23:35.826Z,29.50
2022-11-26T00:24:36.125Z,32.10
2022-11-26T00:25:35.769Z,29.70
2022-11-26T00:26:35.760Z,27.70
2022-11-26T00:27:35.784Z,23.20
2022-11-26T00:28:35.742Z,27.80
2022-11-26T00:29:35.747Z,27.10
2022-11-26T00:30:35.718Z,29.00
2022-11-26T00:31:35.831Z,25.20
2022-11-26T00:32:43.676Z,24.60
2022-11-26T00:33:35.677Z,26.90
2022-11-26T00:34:35.993Z,25.50
2022-11-26T00:35:35.654Z,25.70
2022-11-26T00:36:35.654Z,23.90
2022-11-26T00:37:35.682Z,30.50
2022-11-26T00:38:35.636Z,25.30
2022-11-26T00:39:35.625Z,19.40
2022-11-26T00:40:35.604Z,23.20
2022-11-26T00:41:35.591Z,26.20
2022-11-26T00:42:35.576Z,24.80
2022-11-26T00:43:35.610Z,24.20
2022-11-26T00:44:35.876Z,28.60
2022-11-26T00:45:35.634Z,24.00
2022-11-26T00:46:35.544Z,25.90
2022-11-26T00:47:35.530Z,26.80
2022-11-26T00:48:35.560Z,24.40
2022-11-26T00:49:35.528Z,25.40
2022-11-26T00:50:35.511Z,26.60
2022-11-26T00:51:35.506Z,29.00
2022-11-26T00:52:35.482Z,29.50
2022-11-26T00:53:35.469Z,26.40
2022-11-26T00:54:35.630Z,24.40
2022-11-26T00:55:35.467Z,29.80
2022-11-26T00:56:38.095Z,29.10
2022-11-26T00:57:35.428Z,26.80
2022-11-26T00:58:35.445Z,24.30
2022-11-26T00:59:35.406Z,29.20
2022-11-26T01:00:35.597Z,25.30
2022-11-26T01:01:35.412Z,28.50
2022-11-26T01:02:35.373Z,30.20
2022-11-26T01:03:35.372Z,25.80
2022-11-26T01:04:35.597Z,27.60
2022-11-26T01:05:35.340Z,25.10
2022-11-26T01:06:35.322Z,26.70
2022-11-26T01:07:35.355Z,25.30
2022-11-26T01:08:35.311Z,22.60
2022-11-26T01:09:35.292Z,28.40
2022-11-26T01:10:35.272Z,21.60
2022-11-26T01:11:35.272Z,26.00
2022-11-26T01:12:35.249Z,25.30
2022-11-26T01:13:35.255Z,27.90
2022-11-26T01:14:35.315Z,25.70
2022-11-26T01:15:35.231Z,24.40
2022-11-26T01:16:35.304Z,22.60
2022-11-26T01:17:35.209Z,23.50
2022-11-26T01:18:35.231Z,29.70
2022-11-26T01:19:35.182Z,25.70
2022-11-26T01:20:35.184Z,24.40
2022-11-26T01:21:35.167Z,22.00
2022-11-26T01:22:35.155Z,24.10
2022-11-26T01:23:35.140Z,22.70
2022-11-26T01:24:35.402Z,22.00
2022-11-26T01:25:35.165Z,25.30
2022-11-26T01:26:35.098Z,22.70
2022-11-26T01:27:35.098Z,25.60
2022-11-26T01:28:35.081Z,24.30
2022-11-26T01:29:35.071Z,25.30
2022-11-26T01:30:35.057Z,25.30
2022-11-26T01:31:35.168Z,24.90
2022-11-26T01:32:42.543Z,25.40
2022-11-26T01:33:35.023Z,22.50
2022-11-26T01:34:35.171Z,23.60
2022-11-26T01:35:35.000Z,26.10
2022-11-26T01:36:35.003Z,24.80
2022-11-26T01:37:34.979Z,23.80
2022-11-26T01:38:34.971Z,25.00
2022-11-26T01:39:34.955Z,21.90
2022-11-26T01:40:34.941Z,27.80
2022-11-26T01:41:34.959Z,23.80
2022-11-26T01:42:34.940Z,29.10
2022-11-26T01:43:34.914Z,25.70
2022-11-26T01:44:35.049Z,25.50
2022-11-26T01:45:34.949Z,27.00
2022-11-26T01:46:35.059Z,24.80
2022-11-26T01:47:34.874Z,22.30
2022-11-26T01:48:34.873Z,23.70
2022-11-26T01:49:34.850Z,24.40
2022-11-26T01:50:34.834Z,29.40
2022-11-26T01:51:34.842Z,25.60
2022-11-26T01:52:34.835Z,26.40
2022-11-26T01:53:34.810Z,30.20
2022-11-26T01:54:34.912Z,25.90
2022-11-26T01:55:34.832Z,26.60
2022-11-26T01:56:34.800Z,28.60
2022-11-26T01:57:34.762Z,29.30
2022-11-26T01:58:39.628Z,24.80
2022-11-26T01:59:34.748Z,26.60
2022-11-26T02:00:34.751Z,26.30
2022-11-26T02:01:34.866Z,27.40
2022-11-26T02:02:34.885Z,25.40
2022-11-26T02:03:34.732Z,29.20
2022-11-26T02:04:34.841Z,29.40
2022-11-26T02:05:34.683Z,26.80
2022-11-26T02:06:34.667Z,26.90
2022-11-26T02:07:34.718Z,30.90
2022-11-26T02:08:34.647Z,26.40
2022-11-26T02:09:34.660Z,29.10
2022-11-26T02:10:34.616Z,26.80
2022-11-26T02:11:34.663Z,28.60
2022-11-26T02:12:34.588Z,32.20
2022-11-26T02:13:34.597Z,29.50
2022-11-26T02:14:34.592Z,26.60
2022-11-26T02:15:34.744Z,32.60
2022-11-26T02:16:34.665Z,29.80
2022-11-26T02:17:34.589Z,34.10
2022-11-26T02:18:34.530Z,28.40
2022-11-26T02:19:34.512Z,28.90
2022-11-26T02:20:34.534Z,30.30
2022-11-26T02:21:34.528Z,31.10
2022-11-26T02:22:34.533Z,25.60
2022-11-26T02:23:34.473Z,30.00
2022-11-26T02:24:34.453Z,25.00
2022-11-26T02:25:34.447Z,25.40
2022-11-26T02:26:34.478Z,28.00
2022-11-26T02:27:34.450Z,32.00
2022-11-26T02:28:34.446Z,25.20
2022-11-26T02:29:34.441Z,27.30
2022-11-26T02:30:34.399Z,28.00
2022-11-26T02:31:34.580Z,29.20
2022-11-26T02:32:42.894Z,24.90
2022-11-26T02:33:34.366Z,26.20
2022-11-26T02:34:37.805Z,28.50
2022-11-26T02:35:34.620Z,30.30
2022-11-26T02:36:34.324Z,28.50
2022-11-26T02:37:34.370Z,29.00
2022-11-26T02:38:34.320Z,30.10
2022-11-26T02:39:34.313Z,32.60
2022-11-26T02:40:34.291Z,29.60
2022-11-26T02:41:34.300Z,44.40
2022-11-26T02:42:34.311Z,27.00
2022-11-26T02:43:34.242Z,28.50
2022-11-26T02:44:34.245Z,25.60
2022-11-26T02:45:34.304Z,25.10
2022-11-26T02:46:34.252Z,25.70
2022-11-26T02:47:34.255Z,26.00
2022-11-26T02:48:34.221Z,24.60
2022-11-26T02:49:34.224Z,24.80
2022-11-26T02:50:34.170Z,32.10
2022-11-26T02:51:35.085Z,24.80
2022-11-26T02:52:34.164Z,26.80
2022-11-26T02:53:34.259Z,24.20
2022-11-26T02:54:34.142Z,22.10
2022-11-26T02:55:34.126Z,32.70
2022-11-26T02:56:34.127Z,37.50
2022-11-26T02:57:34.093Z,32.10
2022-11-26T02:58:34.105Z,43.00
2022-11-26T02:59:34.067Z,27.10
2022-11-26T03:00:34.058Z,27.80
2022-11-26T03:01:34.105Z,26.90
2022-11-26T03:02:34.044Z,36.00
2022-11-26T03:03:34.145Z,21.20
2022-11-26T03:04:34.033Z,31.60
2022-11-26T03:05:34.016Z,25.10
2022-11-26T03:06:34.024Z,28.50
2022-11-26T03:07:34.051Z,47.80
2022-11-26T03:08:34.007Z,32.70
2022-11-26T03:09:33.958Z,25.10
2022-11-26T03:10:33.944Z,26.60
2022-11-26T03:11:33.965Z,26.00
2022-11-26T03:12:34.027Z,31.10
2022-11-26T03:13:33.949Z,24.50
2022-11-26T03:14:33.931Z,29.50
2022-11-26T03:15:33.928Z,32.30
2022-11-26T03:16:33.927Z,24.00
2022-11-26T03:17:33.872Z,34.00
2022-11-26T03:18:33.871Z,45.90
2022-11-26T03:19:33.888Z,19.00
2022-11-26T03:20:33.915Z,37.70
2022-11-26T03:21:33.897Z,27.70
2022-11-26T03:22:33.860Z,19.40
2022-11-26T03:23:33.808Z,23.40
2022-11-26T03:24:33.796Z,32.80
2022-11-26T03:25:33.830Z,25.80
2022-11-26T03:26:33.806Z,34.00
2022-11-26T03:27:33.793Z,26.80
2022-11-26T03:28:33.752Z,38.30
2022-11-26T03:29:33.860Z,21.40
2022-11-26T03:30:34.253Z,23.20
2022-11-26T03:31:33.796Z,20.00
2022-11-26T03:32:42.308Z,25.80
2022-11-26T03:33:33.723Z,27.60
2022-11-26T03:34:33.717Z,33.50
2022-11-26T03:35:33.714Z,66.60
2022-11-26T03:36:33.662Z,47.40
2022-11-26T03:37:33.678Z,45.40
2022-11-26T03:38:33.661Z,23.60
2022-11-26T03:39:33.643Z,33.90
2022-11-26T03:40:33.646Z,31.70
2022-11-26T03:41:33.625Z,32.20
2022-11-26T03:42:33.591Z,22.70
2022-11-26T03:43:33.592Z,28.10
2022-11-26T03:44:33.589Z,27.90
2022-11-26T03:45:33.610Z,51.10
2022-11-26T03:46:33.572Z,34.40
2022-11-26T03:47:33.564Z,41.10
2022-11-26T03:48:33.529Z,36.20
2022-11-26T03:49:33.634Z,41.50
2022-11-26T03:50:33.552Z,34.00
2022-11-26T03:51:33.512Z,41.00
2022-11-26T03:52:33.491Z,24.20
2022-11-26T03:53:33.472Z,39.80
2022-11-26T03:54:33.462Z,36.30
2022-11-26T03:55:33.471Z,46.70
2022-11-26T03:56:33.452Z,28.10
2022-11-26T03:57:33.429Z,40.60
2022-11-26T03:58:33.429Z,47.90
2022-11-26T03:59:33.406Z,39.80
2022-11-26T04:00:33.412Z,44.90
2022-11-26T04:01:33.417Z,37.90
2022-11-26T04:02:33.387Z,28.00
2022-11-26T04:03:33.395Z,42.20
2022-11-26T04:04:33.358Z,54.10
2022-11-26T04:05:33.335Z,33.30
2022-11-26T04:06:33.356Z,46.00
2022-11-26T04:07:33.348Z,29.40
2022-11-26T04:08:33.314Z,30.10
2022-11-26T04:09:33.296Z,51.00
2022-11-26T04:10:33.279Z,32.30
2022-11-26T04:11:33.334Z,31.40
2022-11-26T04:12:33.277Z,22.30
2022-11-26T04:13:33.255Z,27.30
2022-11-26T04:14:33.234Z,30.10
2022-11-26T04:15:33.225Z,31.10
2022-11-26T04:16:33.235Z,24.20
2022-11-26T04:17:33.210Z,34.00
2022-11-26T04:18:33.207Z,25.60
2022-11-26T04:19:33.196Z,31.00
2022-11-26T04:20:33.179Z,30.10
2022-11-26T04:21:33.156Z,25.80
2022-11-26T04:22:33.140Z,30.90
2022-11-26T04:23:33.147Z,38.50
2022-11-26T04:24:33.134Z,31.60
2022-11-26T04:25:33.109Z,26.90
2022-11-26T04:26:33.125Z,31.00
2022-11-26T04:27:33.110Z,31.40
2022-11-26T04:28:33.101Z,33.00
2022-11-26T04:29:33.061Z,29.40
2022-11-26T04:30:33.058Z,39.00
2022-11-26T04:31:33.098Z,35.70
2022-11-26T04:32:39.585Z,31.00
2022-11-26T04:33:33.032Z,30.30
2022-11-26T04:34:33.001Z,29.30
2022-11-26T04:35:32.992Z,32.00
2022-11-26T04:36:32.985Z,32.00
2022-11-26T04:37:32.967Z,31.50
2022-11-26T04:38:32.969Z,32.60
2022-11-26T04:39:32.952Z,32.80
2022-11-26T04:40:32.954Z,38.40
2022-11-26T04:41:32.952Z,36.60
2022-11-26T04:42:32.928Z,32.50
2022-11-26T04:43:32.969Z,29.80
2022-11-26T04:44:32.914Z,28.00
2022-11-26T04:45:32.992Z,28.90
2022-11-26T04:46:32.925Z,28.90
2022-11-26T04:47:32.867Z,29.70
2022-11-26T04:48:32.900Z,38.00
2022-11-26T04:49:32.845Z,28.00
2022-11-26T04:50:32.879Z,28.10
2022-11-26T04:51:32.889Z,26.10
2022-11-26T04:52:32.808Z,37.80
2022-11-26T04:53:32.802Z,27.50
2022-11-26T04:54:32.795Z,36.20
2022-11-26T04:55:32.807Z,27.90
2022-11-26T04:56:32.773Z,26.90
2022-11-26T04:57:32.752Z,32.40
2022-11-26T04:58:32.759Z,31.40
2022-11-26T04:59:32.753Z,29.60
2022-11-26T05:00:32.750Z,31.70
2022-11-26T05:01:32.776Z,31.40
2022-11-26T05:02:32.764Z,25.50
2022-11-26T05:03:32.690Z,28.50
2022-11-26T05:04:32.684Z,31.90
2022-11-26T05:05:32.685Z,32.50
2022-11-26T05:06:32.666Z,24.60
2022-11-26T05:07:32.736Z,22.30
2022-11-26T05:08:32.634Z,25.00
2022-11-26T05:09:32.629Z,26.70
2022-11-26T05:10:32.624Z,24.40
2022-11-26T05:11:32.617Z,29.80
2022-11-26T05:12:32.590Z,23.80
2022-11-26T05:13:32.602Z,25.10
2022-11-26T05:14:32.567Z,26.90
2022-11-26T05:15:32.559Z,27.30
2022-11-26T05:16:32.667Z,25.10
2022-11-26T05:17:32.558Z,21.80
2022-11-26T05:18:32.528Z,22.60
2022-11-26T05:19:32.535Z,20.80
2022-11-26T05:20:32.526Z,26.20
2022-11-26T05:21:32.507Z,25.90
2022-11-26T05:22:32.528Z,23.80
2022-11-26T05:23:32.465Z,23.50
2022-11-26T05:24:32.471Z,25.10
2022-11-26T05:25:32.458Z,22.00
2022-11-26T05:26:32.454Z,24.60
2022-11-26T05:27:32.454Z,24.80
2022-11-26T05:28:32.419Z,22.40
2022-11-26T05:29:32.393Z,29.60
2022-11-26T05:30:32.383Z,28.60
2022-11-26T05:31:32.486Z,30.30
2022-11-26T05:32:39.876Z,29.20
2022-11-26T05:33:32.371Z,26.70
2022-11-26T05:34:32.351Z,26.60
2022-11-26T05:35:32.338Z,27.80
2022-11-26T05:36:32.334Z,26.00
2022-11-26T05:37:32.321Z,33.90
2022-11-26T05:38:32.303Z,29.00
2022-11-26T05:39:32.297Z,26.20
2022-11-26T05:40:32.275Z,36.50
2022-11-26T05:41:32.282Z,38.10
2022-11-26T05:42:32.268Z,29.70
2022-11-26T05:43:32.251Z,27.60
2022-11-26T05:44:32.237Z,30.50
2022-11-26T05:45:32.252Z,30.10
2022-11-26T05:46:32.238Z,30.40
2022-11-26T05:47:32.205Z,35.40
2022-11-26T05:48:32.193Z,37.10
2022-11-26T05:49:32.180Z,31.80
2022-11-26T05:50:32.165Z,29.80
2022-11-26T05:51:32.183Z,28.70
2022-11-26T05:52:32.187Z,31.10
2022-11-26T05:53:32.152Z,30.70
2022-11-26T05:54:32.148Z,28.60
2022-11-26T05:55:32.120Z,30.20
2022-11-26T05:56:32.114Z,44.20
2022-11-26T05:57:32.114Z,30.00
2022-11-26T05:58:32.096Z,28.50
2022-11-26T05:59:32.090Z,31.50
2022-11-26T06:00:32.063Z,33.20
2022-11-26T06:01:32.070Z,36.60
2022-11-26T06:02:32.275Z,35.70
2022-11-26T06:03:32.105Z,26.30
2022-11-26T06:04:32.047Z,30.80
2022-11-26T06:05:32.022Z,28.50
2022-11-26T06:06:32.009Z,28.90
2022-11-26T06:07:32.066Z,24.00
2022-11-26T06:08:31.992Z,29.70
2022-11-26T06:09:31.974Z,39.90
2022-11-26T06:10:31.973Z,33.60
2022-11-26T06:11:31.977Z,26.10
2022-11-26T06:12:31.959Z,32.10
2022-11-26T06:13:31.923Z,31.60
2022-11-26T06:14:31.917Z,32.00
2022-11-26T06:15:31.914Z,24.90
2022-11-26T06:16:31.945Z,33.10
2022-11-26T06:17:31.895Z,50.00
2022-11-26T06:18:31.887Z,33.40
2022-11-26T06:19:31.856Z,32.70
2022-11-26T06:20:31.853Z,32.30
2022-11-26T06:21:31.843Z,41.00
2022-11-26T06:22:31.868Z,30.20
2022-11-26T06:23:31.822Z,33.30
2022-11-26T06:24:31.806Z,33.00
2022-11-26T06:25:31.804Z,27.30
2022-11-26T06:26:31.795Z,26.90
2022-11-26T06:27:31.816Z,26.00
2022-11-26T06:28:31.787Z,27.00
2022-11-26T06:29:31.770Z,33.70
2022-11-26T06:30:31.748Z,30.20
2022-11-26T06:31:31.784Z,31.80
2022-11-26T06:32:39.252Z,33.70
2022-11-26T06:33:31.713Z,33.00
2022-11-26T06:34:31.705Z,30.70
2022-11-26T06:35:31.700Z,26.90
2022-11-26T06:36:31.688Z,32.20
2022-11-26T06:37:31.662Z,36.60
2022-11-26T06:38:31.682Z,30.60
2022-11-26T06:39:31.650Z,31.50
2022-11-26T06:40:31.646Z,30.80
2022-11-26T06:41:31.628Z,29.30
2022-11-26T06:42:31.618Z,35.50
2022-11-26T06:43:31.894Z,28.90
2022-11-26T06:44:31.601Z,31.00
2022-11-26T06:45:31.647Z,32.20
2022-11-26T06:46:31.581Z,32.20
2022-11-26T06:47:31.565Z,34.60
2022-11-26T06:48:31.642Z,36.20
2022-11-26T06:49:31.556Z,33.30
2022-11-26T06:50:31.534Z,33.10
2022-11-26T06:51:31.521Z,36.20
2022-11-26T06:52:31.509Z,28.60
2022-11-26T06:53:31.500Z,36.00
2022-11-26T06:54:31.525Z,27.70
2022-11-26T06:55:31.485Z,28.10
2022-11-26T06:56:31.475Z,33.60
2022-11-26T06:57:31.458Z,31.70
2022-11-26T06:58:31.441Z,34.10
2022-11-26T06:59:31.441Z,42.80
2022-11-26T07:00:31.419Z,30.70
2022-11-26T07:01:31.474Z,41.50
2022-11-26T07:02:31.511Z,32.90
2022-11-26T07:03:33.528Z,36.50
2022-11-26T07:04:31.385Z,31.70
2022-11-26T07:05:31.363Z,37.20
2022-11-26T07:06:31.354Z,30.90
2022-11-26T07:07:31.377Z,27.60
2022-11-26T07:08:31.348Z,34.60
2022-11-26T07:09:31.370Z,38.10
2022-11-26T07:10:31.309Z,34.30
2022-11-26T07:11:31.313Z,36.70
2022-11-26T07:12:31.315Z,36.00
2022-11-26T07:13:31.303Z,36.00
2022-11-26T07:14:31.282Z,36.60
2022-11-26T07:15:31.283Z,33.80
2022-11-26T07:16:31.302Z,42.10
2022-11-26T07:17:31.251Z,34.90
2022-11-26T07:18:31.237Z,36.10
2022-11-26T07:19:31.216Z,36.70
2022-11-26T07:20:31.228Z,34.20
2022-11-26T07:21:31.317Z,40.60
2022-11-26T07:22:31.176Z,37.30
2022-11-26T07:23:31.183Z,40.50
2022-11-26T07:24:31.156Z,35.50
2022-11-26T07:25:31.144Z,48.30
2022-11-26T07:26:31.162Z,41.20
2022-11-26T07:27:31.160Z,42.00
2022-11-26T07:28:31.117Z,36.50
2022-11-26T07:29:31.107Z,39.60
2022-11-26T07:30:31.113Z,53.70
2022-11-26T07:31:31.113Z,43.70
2022-11-26T07:33:43.000Z,47.00
2022-11-26T07:34:43.965Z,49.80
2022-11-26T07:35:43.960Z,43.90
2022-11-26T07:36:43.958Z,43.50
2022-11-26T07:37:43.935Z,48.00
2022-11-26T07:38:43.947Z,51.60
2022-11-26T07:39:43.909Z,42.20
2022-11-26T07:40:43.911Z,59.70
2022-11-26T07:41:43.890Z,67.30
2022-11-26T07:42:43.916Z,47.00
2022-11-26T07:43:43.868Z,58.80
2022-11-26T07:44:43.862Z,52.20
2022-11-26T07:45:43.909Z,57.60
2022-11-26T07:46:43.935Z,61.70
2022-11-26T07:47:44.174Z,56.30
2022-11-26T07:48:43.850Z,53.50
2022-11-26T07:49:43.880Z,49.90
2022-11-26T07:50:43.807Z,53.70
2022-11-26T07:51:43.843Z,56.50
2022-11-26T07:52:43.823Z,51.70
2022-11-26T07:53:43.790Z,46.70
2022-11-26T07:54:43.763Z,46.30
2022-11-26T07:55:43.785Z,39.90
2022-11-26T07:56:43.733Z,49.70
2022-11-26T07:57:43.710Z,48.10
2022-11-26T07:58:43.716Z,50.10
2022-11-26T07:59:43.699Z,56.80
2022-11-26T08:00:43.712Z,50.00
2022-11-26T08:01:43.727Z,56.10
2022-11-26T08:02:43.726Z,51.90
2022-11-26T08:03:43.666Z,53.70
2022-11-26T08:04:43.639Z,50.10
2022-11-26T08:05:43.624Z,51.00
2022-11-26T08:06:43.620Z,48.90
2022-11-26T08:07:43.662Z,49.80
2022-11-26T08:08:43.593Z,48.80
2022-11-26T08:09:43.694Z,43.00
2022-11-26T08:10:43.603Z,50.70
2022-11-26T08:11:43.580Z,52.00
2022-11-26T08:12:43.619Z,49.70
2022-11-26T08:13:43.537Z,50.50
2022-11-26T08:14:43.546Z,50.10
2022-11-26T08:15:43.547Z,46.70
2022-11-26T08:16:43.640Z,54.80
2022-11-26T08:17:43.723Z,48.00
2022-11-26T08:18:43.471Z,46.90
2022-11-26T08:19:43.476Z,52.90
2022-11-26T08:20:43.454Z,47.20
2022-11-26T08:21:43.448Z,49.40
2022-11-26T08:22:43.476Z,51.70
2022-11-26T08:23:43.424Z,42.60
2022-11-26T08:24:43.407Z,49.50
2022-11-26T08:26:06.020Z,53.60
2022-11-26T08:26:44.502Z,46.90
2022-11-26T08:27:43.391Z,51.90
2022-11-26T08:28:43.423Z,47.70
2022-11-26T08:29:43.357Z,47.80
2022-11-26T08:30:43.356Z,49.10
2022-11-26T08:32:54.310Z,61.40
2022-11-26T08:33:55.291Z,65.90
2022-11-26T08:34:55.277Z,67.70
2022-11-26T08:36:06.580Z,51.10
2022-11-26T08:36:55.253Z,51.00
2022-11-26T08:37:55.224Z,46.10
2022-11-26T08:38:55.277Z,52.00
2022-11-26T08:39:55.988Z,45.10
2022-11-26T08:40:55.293Z,43.00
2022-11-26T08:41:55.437Z,47.90
2022-11-26T08:42:55.172Z,50.40
2022-11-26T08:44:10.633Z,48.30
2022-11-26T08:44:55.204Z,54.70
2022-11-26T08:45:55.182Z,50.20
2022-11-26T08:46:55.127Z,43.00
2022-11-26T08:47:55.119Z,51.70
2022-11-26T08:48:55.101Z,48.90
2022-11-26T08:49:55.133Z,46.50
2022-11-26T08:50:55.090Z,49.50
2022-11-26T08:51:55.098Z,50.80
2022-11-26T08:52:55.074Z,53.00
2022-11-26T08:53:55.059Z,47.90
2022-11-26T08:54:55.062Z,46.90
2022-11-26T08:56:00.367Z,57.20
2022-11-26T08:56:55.022Z,50.80
2022-11-26T08:57:55.027Z,49.90
2022-11-26T08:58:55.008Z,59.20
2022-11-26T08:59:54.987Z,51.90
2022-11-26T09:00:55.017Z,50.50
2022-11-26T09:01:55.264Z,50.90
2022-11-26T09:02:55.049Z,53.00
2022-11-26T09:03:55.851Z,52.00
2022-11-26T09:04:54.963Z,55.90
2022-11-26T09:05:54.940Z,55.30
2022-11-26T09:06:54.928Z,51.70
2022-11-26T09:07:54.964Z,56.20
2022-11-26T09:08:54.906Z,57.80
2022-11-26T09:09:54.906Z,55.50
2022-11-26T09:10:54.925Z,56.60
2022-11-26T09:11:54.924Z,56.20
2022-11-26T09:12:54.874Z,63.90
2022-11-26T09:13:54.841Z,62.90
2022-11-26T09:14:55.701Z,65.60
2022-11-26T09:15:54.818Z,61.30
2022-11-26T09:16:54.903Z,62.50
2022-11-26T09:17:54.792Z,59.80
2022-11-26T09:18:54.837Z,59.00
2022-11-26T09:19:54.781Z,59.40
2022-11-26T09:20:57.267Z,62.20
2022-11-26T09:21:54.746Z,60.40
2022-11-26T09:22:54.737Z,64.70
2022-11-26T09:23:54.716Z,59.10
2022-11-26T09:24:54.731Z,61.60
2022-11-26T09:25:54.698Z,61.30
2022-11-26T09:26:54.695Z,62.30
2022-11-26T09:27:54.737Z,54.00
2022-11-26T09:28:54.762Z,58.80
2022-11-26T09:29:54.761Z,53.70
2022-11-26T09:30:54.756Z,60.50
2022-11-26T09:32:22.782Z,58.20
2022-11-26T09:32:54.668Z,52.90
2022-11-26T09:33:54.620Z,58.40
2022-11-26T09:34:54.660Z,52.40
2022-11-26T09:35:54.595Z,53.70
2022-11-26T09:36:54.579Z,57.60
2022-11-26T09:37:54.587Z,55.70
2022-11-26T09:38:54.555Z,53.10
2022-11-26T09:39:54.581Z,48.50
2022-11-26T09:40:54.641Z,45.80
2022-11-26T09:41:54.534Z,53.10
2022-11-26T09:42:54.540Z,49.70
2022-11-26T09:43:54.526Z,52.90
2022-11-26T09:44:54.562Z,46.70
2022-11-26T09:45:54.575Z,55.60
2022-11-26T09:47:11.115Z,51.30
2022-11-26T09:47:54.511Z,50.10
2022-11-26T09:48:54.496Z,50.40
2022-11-26T09:49:54.441Z,48.00
2022-11-26T09:50:54.431Z,47.80
2022-11-26T09:51:54.408Z,48.60
2022-11-26T09:52:54.407Z,43.70
2022-11-26T09:53:54.392Z,46.70
2022-11-26T09:54:54.451Z,37.50
2022-11-26T09:55:54.400Z,42.00
2022-11-26T09:56:54.357Z,43.20
2022-11-26T09:57:54.344Z,35.30
2022-11-26T09:58:54.333Z,38.20
2022-11-26T09:59:54.350Z,42.00
2022-11-26T10:00:54.417Z,43.60
2022-11-26T10:01:54.410Z,40.10
2022-11-26T10:02:54.348Z,41.70
2022-11-26T10:03:54.294Z,42.20
2022-11-26T10:04:54.274Z,43.90
2022-11-26T10:05:54.354Z,40.20
2022-11-26T10:06:54.254Z,36.90
2022-11-26T10:07:54.303Z,39.20
2022-11-26T10:08:54.226Z,43.00
2022-11-26T10:09:54.235Z,39.10
2022-11-26T10:10:54.245Z,40.50
2022-11-26T10:11:54.247Z,42.00
2022-11-26T10:13:17.487Z,39.50
2022-11-26T10:13:54.174Z,40.30
2022-11-26T10:14:54.178Z,44.80
2022-11-26T10:15:54.165Z,45.60
2022-11-26T10:16:54.995Z,45.70
2022-11-26T10:17:54.128Z,42.60
2022-11-26T10:18:54.108Z,40.00
2022-11-26T10:19:54.150Z,43.90
2022-11-26T10:20:54.570Z,34.10
2022-11-26T10:21:59.108Z,38.30
2022-11-26T10:22:57.105Z,36.90
2022-11-26T10:23:54.103Z,37.70
2022-11-26T10:24:54.081Z,36.80
2022-11-26T10:25:54.079Z,36.40
2022-11-26T10:26:54.019Z,34.40
2022-11-26T10:27:54.017Z,38.70
2022-11-26T10:28:54.036Z,44.40
2022-11-26T10:29:53.998Z,37.90
2022-11-26T10:30:54.053Z,35.70
2022-11-26T10:32:02.563Z,36.40
2022-11-26T10:32:53.959Z,33.40
2022-11-26T10:33:53.949Z,37.10
2022-11-26T10:34:53.929Z,35.30
2022-11-26T10:35:53.947Z,37.40
2022-11-26T10:36:53.939Z,35.00
2022-11-26T10:37:53.921Z,34.10
2022-11-26T10:38:53.917Z,32.90
2022-11-26T10:39:59.142Z,38.40
2022-11-26T10:40:53.907Z,38.50
2022-11-26T10:41:53.913Z,34.30
2022-11-26T10:42:53.885Z,33.20
2022-11-26T10:43:53.847Z,36.90
2022-11-26T10:44:53.831Z,35.50
2022-11-26T10:45:53.940Z,30.70
2022-11-26T10:46:53.980Z,28.50
2022-11-26T10:47:53.791Z,36.50
2022-11-26T10:48:53.792Z,32.90
2022-11-26T10:49:53.784Z,32.40
2022-11-26T10:50:53.773Z,28.70
2022-11-26T10:51:53.765Z,32.50
2022-11-26T10:52:53.754Z,33.10
2022-11-26T10:53:53.761Z,32.60
2022-11-26T10:54:53.729Z,27.90
2022-11-26T10:55:53.711Z,28.20
2022-11-26T10:56:53.713Z,34.10
2022-11-26T10:57:53.684Z,31.40
2022-11-26T10:58:53.737Z,29.90
2022-11-26T10:59:53.687Z,28.90
2022-11-26T11:00:53.704Z,29.80
2022-11-26T11:01:56.231Z,33.00
2022-11-26T11:02:53.662Z,28.30
2022-11-26T11:04:09.349Z,29.50
2022-11-26T11:04:53.631Z,35.50
2022-11-26T11:05:53.590Z,28.60
2022-11-26T11:06:53.626Z,30.30
2022-11-26T11:07:53.680Z,35.40
2022-11-26T11:08:53.620Z,34.40
2022-11-26T11:09:53.577Z,34.90
2022-11-26T11:10:53.570Z,36.50
2022-11-26T11:11:53.540Z,37.50
2022-11-26T11:12:53.529Z,41.90
2022-11-26T11:13:53.574Z,40.70
2022-11-26T11:14:53.547Z,40.30
2022-11-26T11:15:53.610Z,39.50
2022-11-26T11:16:53.538Z,37.70
2022-11-26T11:17:53.461Z,35.60
2022-11-26T11:18:53.482Z,27.30
2022-11-26T11:19:53.449Z,30.30
2022-11-26T11:20:53.457Z,27.40
2022-11-26T11:21:53.465Z,30.60
2022-11-26T11:22:56.295Z,31.20
2022-11-26T11:24:08.145Z,30.20
2022-11-26T11:24:53.416Z,26.20
2022-11-26T11:25:53.411Z,27.10
2022-11-26T11:26:53.414Z,28.60
2022-11-26T11:27:53.362Z,26.40
2022-11-26T11:28:53.369Z,25.00
2022-11-26T11:29:53.364Z,25.00
2022-11-26T11:30:53.368Z,29.20
2022-11-26T11:32:00.887Z,32.10
2022-11-26T11:32:53.325Z,29.10
2022-11-26T11:33:53.303Z,22.60
2022-11-26T11:34:53.311Z,31.00
2022-11-26T11:35:53.270Z,31.90
2022-11-26T11:36:53.274Z,30.40
2022-11-26T11:37:53.261Z,30.10
2022-11-26T11:38:53.240Z,27.50
2022-11-26T11:39:53.246Z,25.30
2022-11-26T11:40:53.223Z,27.50
2022-11-26T11:41:53.225Z,26.50
2022-11-26T11:42:53.198Z,30.60
2022-11-26T11:43:53.216Z,27.60
2022-11-26T11:44:53.207Z,27.30
2022-11-26T11:45:53.625Z,28.70
2022-11-26T11:46:53.164Z,27.40
2022-11-26T11:47:53.152Z,27.70
2022-11-26T11:48:53.149Z,28.60
2022-11-26T11:49:53.136Z,26.80
2022-11-26T11:50:53.109Z,32.10
2022-11-26T11:51:53.108Z,27.10
2022-11-26T11:52:53.097Z,30.00
2022-11-26T11:53:53.085Z,27.10
2022-11-26T11:54:53.067Z,30.80
2022-11-26T11:55:55.858Z,30.40
2022-11-26T11:56:53.060Z,33.50
2022-11-26T11:57:53.050Z,28.70
2022-11-26T11:58:53.021Z,28.70
2022-11-26T11:59:53.102Z,27.00
2022-11-26T12:00:53.039Z,30.30
2022-11-26T12:01:53.179Z,25.40
2022-11-26T12:02:52.989Z,27.30
2022-11-26T12:03:53.048Z,27.20
2022-11-26T12:04:53.036Z,28.20
2022-11-26T12:05:52.947Z,29.80
2022-11-26T12:06:52.951Z,29.00
2022-11-26T12:07:52.992Z,23.80
2022-11-26T12:08:52.916Z,25.50
2022-11-26T12:09:52.934Z,25.90
2022-11-26T12:10:52.883Z,22.40
2022-11-26T12:11:52.910Z,23.20
2022-11-26T12:14:18.971Z,27.70
2022-11-26T12:14:23.872Z,25.20
2022-11-26T12:15:23.874Z,27.10
2022-11-26T12:16:23.882Z,25.40
2022-11-26T12:17:26.738Z,27.40
2022-11-26T12:18:23.805Z,29.60
2022-11-26T12:19:23.782Z,31.10
2022-11-26T12:20:23.766Z,30.70
2022-11-26T12:21:23.762Z,26.60
2022-11-26T12:22:23.765Z,27.90
2022-11-26T12:23:24.825Z,30.60
2022-11-26T12:24:24.469Z,27.50
2022-11-26T12:25:23.707Z,22.70
2022-11-26T12:26:23.712Z,25.00
2022-11-26T12:27:23.728Z,23.60
2022-11-26T12:28:23.700Z,25.40
2022-11-26T12:29:23.703Z,25.10
2022-11-26T12:30:23.704Z,27.70
2022-11-26T12:31:23.769Z,25.70
2022-11-26T12:32:31.135Z,26.90
2022-11-26T12:33:23.618Z,23.70
2022-11-26T12:34:23.617Z,27.70
2022-11-26T12:35:23.613Z,26.10
2022-11-26T12:36:23.573Z,33.30
2022-11-26T12:37:23.645Z,25.90
2022-11-26T12:38:23.568Z,29.70
2022-11-26T12:39:23.537Z,26.60
2022-11-26T12:40:23.553Z,26.80
2022-11-26T12:41:23.528Z,29.00
2022-11-26T12:42:23.505Z,26.40
2022-11-26T12:43:23.513Z,27.60
2022-11-26T12:44:23.486Z,28.90
2022-11-26T12:45:23.489Z,29.60
2022-11-26T12:46:23.577Z,26.40
2022-11-26T12:47:23.461Z,26.40
2022-11-26T12:48:23.467Z,28.20
2022-11-26T12:49:23.434Z,26.80
2022-11-26T12:50:23.443Z,31.40
2022-11-26T12:51:23.409Z,30.70
2022-11-26T12:52:23.414Z,25.20
2022-11-26T12:53:23.395Z,28.00
2022-11-26T12:54:23.393Z,27.90
2022-11-26T12:55:23.376Z,27.90